createdAt,value
2017-05-22T00:01:17.155Z,101537.17
2017-05-22T00:03:43.491Z,101534.62
2017-05-22T00:06:09.844Z,101535.16
2017-05-22T00:08:36.219Z,101529.30
2017-05-22T00:11:02.585Z,101533.86
2017-05-22T00:13:29.170Z,101525.66
2017-05-22T00:15:55.525Z,101528.30
2017-05-22T00:18:22.019Z,101527.12
2017-05-22T00:20:48.537Z,101530.56
2017-05-22T00:23:15.097Z,101531.16
2017-05-22T00:25:41.579Z,101535.95
2017-05-22T00:28:08.282Z,101530.11
2017-05-22T00:30:34.659Z,101528.08
2017-05-22T00:33:01.094Z,101526.61
2017-05-22T00:35:31.892Z,101528.95
2017-05-22T00:37:58.800Z,101531.09
2017-05-22T00:40:25.233Z,101528.52
2017-05-22T00:42:52.176Z,101524.72
2017-05-22T00:45:18.592Z,101520.41
2017-05-22T00:47:44.929Z,101523.41
2017-05-22T00:50:11.268Z,101523.34
2017-05-22T00:52:37.663Z,101523.12
2017-05-22T00:55:04.041Z,101519.11
2017-05-22T00:57:30.433Z,101525.42
2017-05-22T00:59:56.773Z,101521.02
2017-05-22T01:02:23.101Z,101515.20
2017-05-22T01:04:49.518Z,101511.44
2017-05-22T01:07:15.879Z,101509.03
2017-05-22T01:09:42.230Z,101512.27
2017-05-22T01:12:08.598Z,101506.97
2017-05-22T01:14:34.939Z,101501.80
2017-05-22T01:17:01.267Z,101502.11
2017-05-22T01:19:27.751Z,101501.94
2017-05-22T01:21:54.152Z,101496.98
2017-05-22T01:24:20.493Z,101497.39
2017-05-22T01:26:47.120Z,101495.80
2017-05-22T01:29:13.468Z,101494.47
2017-05-22T01:31:39.845Z,101487.23
2017-05-22T01:34:06.202Z,101486.20
2017-05-22T01:36:32.633Z,101491.03
2017-05-22T01:38:58.971Z,101485.55
2017-05-22T01:41:25.333Z,101477.87
2017-05-22T01:43:51.684Z,101480.83
2017-05-22T01:46:18.057Z,101478.33
2017-05-22T01:48:44.391Z,101479.83
2017-05-22T01:51:11.238Z,101475.01
2017-05-22T01:53:37.608Z,101478.06
2017-05-22T01:56:03.971Z,101473.47
2017-05-22T01:58:30.288Z,101475.41
2017-05-22T02:00:56.658Z,101474.00
2017-05-22T02:03:23.001Z,101473.36
2017-05-22T02:05:49.334Z,101470.55
2017-05-22T02:08:15.670Z,101470.81
2017-05-22T02:10:42.004Z,101469.28
2017-05-22T02:13:08.361Z,101459.20
2017-05-22T02:15:34.701Z,101460.61
2017-05-22T02:18:01.043Z,101462.84
2017-05-22T02:20:27.400Z,101458.52
2017-05-22T02:22:53.751Z,101458.76
2017-05-22T02:25:20.109Z,101449.12
2017-05-22T02:27:46.493Z,101455.19
2017-05-22T02:30:12.868Z,101451.45
2017-05-22T02:32:39.235Z,101448.91
2017-05-22T02:35:05.616Z,101448.08
2017-05-22T02:37:32.016Z,101439.80
2017-05-22T02:39:58.378Z,101438.31
2017-05-22T02:42:24.817Z,101434.59
2017-05-22T02:44:51.173Z,101433.78
2017-05-22T02:47:17.526Z,101425.95
2017-05-22T02:49:43.872Z,101428.15
2017-05-22T02:52:10.201Z,101425.99
2017-05-22T02:54:36.559Z,101419.91
2017-05-22T02:57:03.123Z,101427.04
2017-05-22T02:59:29.469Z,101421.53
2017-05-22T03:01:55.834Z,101417.36
2017-05-22T03:04:22.147Z,101417.18
2017-05-22T03:06:48.486Z,101416.93
2017-05-22T03:09:14.810Z,101410.99
2017-05-22T03:11:41.148Z,101417.59
2017-05-22T03:14:07.486Z,101416.95
2017-05-22T03:16:33.828Z,101419.95
2017-05-22T03:19:00.161Z,101421.35
2017-05-22T03:21:26.539Z,101413.84
2017-05-22T03:23:52.868Z,101413.69
2017-05-22T03:26:19.197Z,101413.03
2017-05-22T03:28:45.577Z,101417.95
2017-05-22T03:31:11.954Z,101418.77
2017-05-22T03:33:38.288Z,101411.25
2017-05-22T03:36:04.702Z,101411.52
2017-05-22T03:38:31.138Z,101418.04
2017-05-22T03:40:57.490Z,101411.43
2017-05-22T03:43:23.853Z,101406.28
2017-05-22T03:45:50.212Z,101402.20
2017-05-22T03:48:16.604Z,101402.32
2017-05-22T03:50:42.969Z,101404.84
2017-05-22T03:53:09.645Z,101406.60
2017-05-22T03:55:36.404Z,101410.83
2017-05-22T03:58:02.760Z,101409.91
2017-05-22T04:00:29.084Z,101408.56
2017-05-22T04:02:55.448Z,101413.18
2017-05-22T04:05:21.814Z,101404.80
2017-05-22T04:07:48.165Z,101411.37
2017-05-22T04:10:14.534Z,101409.00
2017-05-22T04:12:40.860Z,101407.90
2017-05-22T04:15:07.201Z,101403.92
2017-05-22T04:17:33.538Z,101408.66
2017-05-22T04:19:59.888Z,101404.52
2017-05-22T04:22:26.258Z,101407.98
2017-05-22T04:24:52.624Z,101402.46
2017-05-22T04:27:18.953Z,101410.31
2017-05-22T04:29:45.316Z,101400.13
2017-05-22T04:32:11.680Z,101404.08
2017-05-22T04:34:38.079Z,101399.31
2017-05-22T04:37:04.458Z,101394.94
2017-05-22T04:39:30.831Z,101393.31
2017-05-22T04:41:57.173Z,101392.45
2017-05-22T04:44:23.573Z,101393.28
2017-05-22T04:46:49.928Z,101384.54
2017-05-22T04:49:16.303Z,101385.06
2017-05-22T04:51:42.668Z,101380.78
2017-05-22T04:54:09.067Z,101382.37
2017-05-22T04:56:35.434Z,101386.14
2017-05-22T04:59:01.752Z,101378.36
2017-05-22T05:01:28.101Z,101379.45
2017-05-22T05:03:54.470Z,101379.51
2017-05-22T05:06:20.815Z,101386.98
2017-05-22T05:08:47.177Z,101380.50
2017-05-22T05:11:13.533Z,101383.17
2017-05-22T05:13:39.918Z,101380.84
2017-05-22T05:16:06.255Z,101379.31
2017-05-22T05:18:32.598Z,101381.58
2017-05-22T05:20:58.927Z,101376.69
2017-05-22T05:23:25.359Z,101375.11
2017-05-22T05:25:51.681Z,101373.25
2017-05-22T05:28:18.026Z,101372.29
2017-05-22T05:30:44.413Z,101365.02
2017-05-22T05:33:10.754Z,101363.27
2017-05-22T05:35:37.101Z,101364.68
2017-05-22T05:38:03.474Z,101364.94
2017-05-22T05:40:29.829Z,101354.63
2017-05-22T05:42:56.260Z,101358.42
2017-05-22T05:45:22.617Z,101361.28
2017-05-22T05:47:48.955Z,101357.93
2017-05-22T05:50:15.357Z,101362.81
2017-05-22T05:52:41.712Z,101362.48
2017-05-22T05:55:08.079Z,101353.09
2017-05-22T05:57:34.414Z,101363.77
2017-05-22T06:00:00.797Z,101356.34
2017-05-22T06:02:27.168Z,101360.08
2017-05-22T06:04:53.547Z,101358.50
2017-05-22T06:07:19.910Z,101354.28
2017-05-22T06:09:46.295Z,101359.66
2017-05-22T06:12:13.075Z,101356.36
2017-05-22T06:14:39.426Z,101352.12
2017-05-22T06:17:05.777Z,101350.91
2017-05-22T06:19:32.112Z,101350.30
2017-05-22T06:21:58.447Z,101341.76
2017-05-22T06:24:24.793Z,101346.76
2017-05-22T06:26:51.154Z,101346.16
2017-05-22T06:29:17.467Z,101342.27
2017-05-22T06:31:43.796Z,101348.42
2017-05-22T06:34:10.149Z,101344.31
2017-05-22T06:36:36.482Z,101342.98
2017-05-22T06:39:02.944Z,101343.35
2017-05-22T06:41:29.281Z,101339.67
2017-05-22T06:43:55.603Z,101336.16
2017-05-22T06:46:21.965Z,101328.68
2017-05-22T06:48:48.246Z,101329.58
2017-05-22T06:51:14.579Z,101330.03
2017-05-22T06:53:40.891Z,101328.18
2017-05-22T06:56:07.200Z,101330.20
2017-05-22T06:58:33.511Z,101329.41
2017-05-22T07:00:59.844Z,101329.88
2017-05-22T07:03:26.189Z,101330.47
2017-05-22T07:05:52.522Z,101336.98
2017-05-22T07:08:18.859Z,101333.23
2017-05-22T07:10:45.174Z,101325.11
2017-05-22T07:13:11.509Z,101329.05
2017-05-22T07:15:37.846Z,101327.39
2017-05-22T07:18:04.148Z,101321.34
2017-05-22T07:20:30.478Z,101319.00
2017-05-22T07:22:56.816Z,101320.45
2017-05-22T07:25:23.173Z,101319.26
2017-05-22T07:27:49.500Z,101320.12
2017-05-22T07:30:15.822Z,101317.41
2017-05-22T07:32:42.131Z,101319.92
2017-05-22T07:35:08.445Z,101319.16
2017-05-22T07:37:34.791Z,101316.45
2017-05-22T07:40:01.116Z,101312.50
2017-05-22T07:42:27.921Z,101309.73
2017-05-22T07:44:54.252Z,101303.52
2017-05-22T07:47:20.577Z,101303.20
2017-05-22T07:49:46.894Z,101300.66
2017-05-22T07:52:13.206Z,101301.11
2017-05-22T07:54:39.518Z,101301.78
2017-05-22T07:57:05.887Z,101296.42
2017-05-22T07:59:32.239Z,101293.70
2017-05-22T08:01:58.594Z,101299.19
2017-05-22T08:04:24.953Z,101295.39
2017-05-22T08:06:51.322Z,101289.48
2017-05-22T08:09:17.685Z,101283.63
2017-05-22T08:11:44.008Z,101281.32
2017-05-22T08:14:10.347Z,101282.08
2017-05-22T08:16:36.664Z,101274.00
2017-05-22T08:19:02.967Z,101273.92
2017-05-22T08:21:29.291Z,101271.02
2017-05-22T08:23:55.587Z,101275.24
2017-05-22T08:26:21.923Z,101266.44
2017-05-22T08:28:48.235Z,101269.20
2017-05-22T08:31:14.556Z,101258.25
2017-05-22T08:33:40.896Z,101261.23
2017-05-22T08:36:07.229Z,101263.72
2017-05-22T08:38:33.574Z,101255.95
2017-05-22T08:40:59.888Z,101255.02
2017-05-22T08:43:26.220Z,101262.89
2017-05-22T08:45:52.577Z,101262.30
2017-05-22T08:48:18.909Z,101255.99
2017-05-22T08:50:45.223Z,101256.53
2017-05-22T08:53:11.582Z,101255.02
2017-05-22T08:55:37.949Z,101252.39
2017-05-22T08:58:04.266Z,101251.41
2017-05-22T09:00:30.591Z,101250.94
2017-05-22T09:02:56.898Z,101252.77
2017-05-22T09:05:23.255Z,101245.27
2017-05-22T09:07:49.590Z,101243.81
2017-05-22T09:10:16.016Z,101243.13
2017-05-22T09:12:42.347Z,101247.72
2017-05-22T09:15:08.705Z,101246.61
2017-05-22T09:17:35.054Z,101244.23
2017-05-22T09:20:01.416Z,101239.17
2017-05-22T09:22:27.753Z,101234.44
2017-05-22T09:24:54.076Z,101235.16
2017-05-22T09:27:20.427Z,101232.82
2017-05-22T09:29:46.771Z,101239.28
2017-05-22T09:32:13.113Z,101236.87
2017-05-22T09:34:39.548Z,101237.09
2017-05-22T09:37:05.929Z,101235.45
2017-05-22T09:39:32.268Z,101230.24
2017-05-22T09:41:58.637Z,101226.37
2017-05-22T09:44:24.967Z,101225.67
2017-05-22T09:46:51.303Z,101219.98
2017-05-22T09:49:17.642Z,101220.06
2017-05-22T09:51:43.967Z,101215.73
2017-05-22T09:54:10.311Z,101214.00
2017-05-22T09:56:36.637Z,101208.49
2017-05-22T09:59:02.976Z,101212.20
2017-05-22T10:01:29.321Z,101202.59
2017-05-22T10:03:55.666Z,101205.34
2017-05-22T10:06:22.039Z,101206.36
2017-05-22T10:08:48.369Z,101201.36
2017-05-22T10:11:14.690Z,101194.88
2017-05-22T10:13:41.055Z,101195.49
2017-05-22T10:16:07.381Z,101196.22
2017-05-22T10:18:33.700Z,101188.57
2017-05-22T10:21:00.064Z,101180.19
2017-05-22T10:23:26.358Z,101176.79
2017-05-22T10:25:52.717Z,101169.44
2017-05-22T10:28:19.035Z,101174.14
2017-05-22T10:30:45.376Z,101169.83
2017-05-22T10:33:11.729Z,101171.89
2017-05-22T10:35:38.062Z,101167.88
2017-05-22T10:38:04.379Z,101167.06
2017-05-22T10:40:30.733Z,101162.09
2017-05-22T10:42:57.074Z,101163.61
2017-05-22T10:45:23.407Z,101160.77
2017-05-22T10:47:50.043Z,101154.60
2017-05-22T10:50:16.355Z,101152.65
2017-05-22T10:52:42.736Z,101156.30
2017-05-22T10:55:09.127Z,101157.17
2017-05-22T10:57:35.520Z,101142.42
2017-05-22T11:00:01.903Z,101138.81
2017-05-22T11:02:28.284Z,101142.36
2017-05-22T11:04:54.675Z,101142.67
2017-05-22T11:07:21.020Z,101143.03
2017-05-22T11:09:47.323Z,101138.70
2017-05-22T11:12:13.639Z,101133.98
2017-05-22T11:14:39.994Z,101134.06
2017-05-22T11:17:06.329Z,101127.02
2017-05-22T11:19:32.684Z,101134.87
2017-05-22T11:21:59.022Z,101120.95
2017-05-22T11:24:25.348Z,101121.34
2017-05-22T11:26:51.701Z,101112.41
2017-05-22T11:29:18.014Z,101110.77
2017-05-22T11:31:44.390Z,101113.98
2017-05-22T11:34:10.700Z,101105.55
2017-05-22T11:36:37.014Z,101115.34
2017-05-22T11:39:03.475Z,101115.97
2017-05-22T11:41:29.833Z,101114.66
2017-05-22T11:43:56.148Z,101112.11
2017-05-22T11:46:22.466Z,101109.61
2017-05-22T11:48:48.831Z,101112.97
2017-05-22T11:51:15.135Z,101113.23
2017-05-22T11:53:41.456Z,101110.72
2017-05-22T11:56:07.782Z,101111.59
2017-05-22T11:58:34.162Z,101114.22
2017-05-22T12:01:00.533Z,101103.10
2017-05-22T12:03:26.880Z,101098.47
2017-05-22T12:05:53.194Z,101098.44
2017-05-22T12:08:19.527Z,101097.75
2017-05-22T12:10:45.854Z,101093.39
2017-05-22T12:13:12.186Z,101099.00
2017-05-22T12:15:38.511Z,101095.91
2017-05-22T12:18:04.836Z,101094.16
2017-05-22T12:20:31.211Z,101092.61
2017-05-22T12:22:57.536Z,101087.83
2017-05-22T12:25:23.883Z,101081.61
2017-05-22T12:27:50.262Z,101086.98
2017-05-22T12:30:16.600Z,101086.95
2017-05-22T12:32:42.923Z,101083.44
2017-05-22T12:35:09.248Z,101079.50
2017-05-22T12:37:35.619Z,101076.72
2017-05-22T12:40:01.955Z,101069.89
2017-05-22T12:42:28.246Z,101070.58
2017-05-22T12:44:54.575Z,101065.00
2017-05-22T12:47:20.902Z,101065.16
2017-05-22T12:49:47.236Z,101061.39
2017-05-22T12:52:13.579Z,101064.06
2017-05-22T12:54:39.890Z,101051.05
2017-05-22T12:57:06.216Z,101050.44
2017-05-22T12:59:32.539Z,101044.00
2017-05-22T13:01:58.828Z,101042.78
2017-05-22T13:04:25.149Z,101041.03
2017-05-22T13:06:51.458Z,101035.74
2017-05-22T13:09:17.777Z,101028.51
2017-05-22T13:11:44.111Z,101026.94
2017-05-22T13:14:10.426Z,101019.29
2017-05-22T13:16:36.726Z,101024.30
2017-05-22T13:19:03.067Z,101018.62
2017-05-22T13:21:29.403Z,101016.50
2017-05-22T13:23:55.736Z,101022.45
2017-05-22T13:26:22.102Z,101021.55
2017-05-22T13:28:48.421Z,101014.81
2017-05-22T13:31:14.740Z,101013.08
2017-05-22T13:33:41.063Z,101007.39
2017-05-22T13:36:07.398Z,101001.20
2017-05-22T13:38:33.714Z,101002.95
2017-05-22T13:41:00.051Z,101003.52
2017-05-22T13:43:26.373Z,100997.23
2017-05-22T13:45:57.957Z,100992.19
2017-05-22T13:48:24.293Z,100986.97
2017-05-22T13:50:50.637Z,100992.31
2017-05-22T13:53:16.958Z,100987.17
2017-05-22T13:55:43.323Z,100989.66
2017-05-22T13:58:09.663Z,100980.89
2017-05-22T14:00:36.049Z,100982.28
2017-05-22T14:03:02.386Z,100973.13
2017-05-22T14:05:28.686Z,100977.53
2017-05-22T14:07:55.036Z,100967.75
2017-05-22T14:10:21.362Z,100966.83
2017-05-22T14:12:47.680Z,100975.62
2017-05-22T14:15:14.011Z,100972.56
2017-05-22T14:17:40.380Z,100969.81
2017-05-22T14:20:06.736Z,100975.87
2017-05-22T14:22:33.093Z,100970.09
2017-05-22T14:24:59.432Z,100964.80
2017-05-22T14:27:25.771Z,100966.98
2017-05-22T14:29:52.097Z,100964.92
2017-05-22T14:32:18.438Z,100965.31
2017-05-22T14:34:44.786Z,100964.78
2017-05-22T14:37:11.106Z,100958.83
2017-05-22T14:39:37.837Z,100956.73
2017-05-22T14:42:04.176Z,100950.58
2017-05-22T14:44:30.526Z,100949.55
2017-05-22T14:46:56.845Z,100953.02
2017-05-22T14:49:23.186Z,100951.80
2017-05-22T14:51:49.542Z,100946.47
2017-05-22T14:54:15.875Z,100946.14
2017-05-22T14:56:42.434Z,100948.25
2017-05-22T14:59:08.783Z,100937.93
2017-05-22T15:01:35.126Z,100936.59
2017-05-22T15:04:01.451Z,100942.09
2017-05-22T15:06:27.786Z,100950.28
2017-05-22T15:08:54.129Z,100941.86
2017-05-22T15:11:20.430Z,100934.34
2017-05-22T15:13:46.751Z,100932.30
2017-05-22T15:16:13.050Z,100927.57
2017-05-22T15:18:39.394Z,100931.05
2017-05-22T15:21:05.790Z,100933.80
2017-05-22T15:23:32.112Z,100930.73
2017-05-22T15:25:58.445Z,100926.70
2017-05-22T15:28:24.750Z,100925.91
2017-05-22T15:30:51.065Z,100923.77
2017-05-22T15:33:17.429Z,100922.16
2017-05-22T15:35:43.745Z,100913.32
2017-05-22T15:38:10.103Z,100916.73
2017-05-22T15:40:36.440Z,100912.09
2017-05-22T15:43:02.871Z,100915.34
2017-05-22T15:45:29.259Z,100908.00
2017-05-22T15:47:55.602Z,100912.88
2017-05-22T15:50:21.945Z,100908.36
2017-05-22T15:52:48.279Z,100905.27
2017-05-22T15:55:14.625Z,100903.08
2017-05-22T15:57:40.985Z,100906.59
2017-05-22T16:00:07.318Z,100898.45
2017-05-22T16:02:33.667Z,100903.45
2017-05-22T16:05:00.005Z,100900.20
2017-05-22T16:07:26.373Z,100896.55
2017-05-22T16:09:52.694Z,100894.23
2017-05-22T16:12:19.325Z,100892.38
2017-05-22T16:14:46.426Z,100883.56
2017-05-22T16:17:13.197Z,100883.19
2017-05-22T16:19:39.843Z,100874.91
2017-05-22T16:22:06.185Z,100867.16
2017-05-22T16:24:32.567Z,100864.58
2017-05-22T16:26:59.633Z,100864.84
2017-05-22T16:29:25.990Z,100869.36
2017-05-22T16:31:52.328Z,100865.57
2017-05-22T16:34:18.644Z,100859.81
2017-05-22T16:36:45.009Z,100866.98
2017-05-22T16:39:11.340Z,100868.45
2017-05-22T16:41:37.917Z,100860.28
2017-05-22T16:44:04.294Z,100855.55
2017-05-22T16:46:30.639Z,100845.63
2017-05-22T16:48:57.351Z,100844.81
2017-05-22T16:51:23.789Z,100841.88
2017-05-22T16:53:50.119Z,100839.65
2017-05-22T16:56:16.486Z,100834.89
2017-05-22T16:58:42.860Z,100843.87
2017-05-22T17:01:09.179Z,100848.05
2017-05-22T17:03:35.482Z,100843.08
2017-05-22T17:06:01.806Z,100839.18
2017-05-22T17:08:28.139Z,100838.09
2017-05-22T17:10:54.507Z,100837.23
2017-05-22T17:13:20.825Z,100837.14
2017-05-22T17:15:47.190Z,100829.83
2017-05-22T17:18:13.528Z,100827.71
2017-05-22T17:20:39.881Z,100832.09
2017-05-22T17:23:06.200Z,100824.25
2017-05-22T17:25:32.585Z,100833.07
2017-05-22T17:27:58.896Z,100830.72
2017-05-22T17:30:25.234Z,100830.48
2017-05-22T17:32:51.586Z,100833.38
2017-05-22T17:35:17.919Z,100835.59
2017-05-22T17:37:44.270Z,100836.58
2017-05-22T17:40:10.618Z,100837.16
2017-05-22T17:42:36.957Z,100835.39
2017-05-22T17:45:03.331Z,100831.72
2017-05-22T17:47:29.667Z,100835.72
2017-05-22T17:49:56.005Z,100839.17
2017-05-22T17:52:22.362Z,100845.70
2017-05-22T17:54:48.740Z,100833.18
2017-05-22T17:57:15.079Z,100838.58
2017-05-22T17:59:41.467Z,100839.17
2017-05-22T18:02:07.825Z,100841.30
2017-05-22T18:04:34.171Z,100844.34
2017-05-22T18:07:00.507Z,100842.97
2017-05-22T18:09:26.830Z,100846.05
2017-05-22T18:11:53.191Z,100846.11
2017-05-22T18:14:19.511Z,100846.59
2017-05-22T18:16:45.835Z,100851.38
2017-05-22T18:19:12.197Z,100851.53
2017-05-22T18:21:38.532Z,100851.38
2017-05-22T18:24:04.875Z,100852.46
2017-05-22T18:26:31.210Z,100851.02
2017-05-22T18:28:57.556Z,100851.52
2017-05-22T18:31:23.862Z,100852.52
2017-05-22T18:33:50.239Z,100855.31
2017-05-22T18:36:16.658Z,100854.39
2017-05-22T18:38:42.998Z,100849.17
2017-05-22T18:41:09.346Z,100852.23
2017-05-22T18:43:35.693Z,100845.05
2017-05-22T18:46:02.059Z,100840.96
2017-05-22T18:48:28.415Z,100844.61
2017-05-22T18:50:54.805Z,100848.04
2017-05-22T18:53:21.166Z,100847.09
2017-05-22T18:55:47.476Z,100845.48
2017-05-22T18:58:13.835Z,100846.80
2017-05-22T19:00:40.221Z,100844.11
2017-05-22T19:03:06.563Z,100842.14
2017-05-22T19:05:32.909Z,100849.12
2017-05-22T19:07:59.263Z,100848.66
2017-05-22T19:10:25.656Z,100852.14
2017-05-22T19:12:52.295Z,100852.44
2017-05-22T19:15:19.022Z,100842.92
2017-05-22T19:17:46.500Z,100851.91
2017-05-22T19:20:13.902Z,100851.70
2017-05-22T19:22:40.269Z,100852.77
2017-05-22T19:25:06.984Z,100853.72
2017-05-22T19:27:33.361Z,100849.72
2017-05-22T19:30:00.244Z,100856.80
2017-05-22T19:32:26.938Z,100862.66
2017-05-22T19:34:53.317Z,100849.42
2017-05-22T19:37:19.702Z,100851.45
2017-05-22T19:39:46.114Z,100863.92
2017-05-22T19:42:13.079Z,100854.88
2017-05-22T19:44:40.407Z,100861.94
2017-05-22T19:47:07.263Z,100853.77
2017-05-22T19:49:33.753Z,100853.92
2017-05-22T19:52:00.289Z,100852.66
2017-05-22T19:54:26.724Z,100862.40
2017-05-22T19:56:53.147Z,100858.92
2017-05-22T19:59:24.578Z,100861.46
2017-05-22T20:01:54.679Z,100863.13
2017-05-22T20:04:31.174Z,100853.65
2017-05-22T20:06:58.863Z,100859.85
2017-05-22T20:09:25.362Z,100860.97
2017-05-22T20:11:51.730Z,100858.46
2017-05-22T20:16:55.340Z,100859.09
2017-05-22T20:19:21.751Z,100864.45
2017-05-22T20:21:48.333Z,100865.16
2017-05-22T20:24:14.770Z,100862.17
2017-05-22T20:26:41.194Z,100861.89
2017-05-22T20:29:08.202Z,100860.14
2017-05-22T20:31:34.534Z,100858.03
2017-05-22T20:34:00.909Z,100858.27
2017-05-22T20:36:27.262Z,100861.84
2017-05-22T20:38:53.802Z,100864.51
2017-05-22T20:41:20.295Z,100859.86
2017-05-22T20:43:46.993Z,100867.95
2017-05-22T20:46:13.474Z,100868.09
2017-05-22T20:48:40.128Z,100864.80
2017-05-22T20:51:06.470Z,100874.34
2017-05-22T20:53:33.190Z,100873.84
2017-05-22T20:56:01.183Z,100868.05
2017-05-22T20:58:27.648Z,100864.73
2017-05-22T21:00:54.147Z,100870.05
2017-05-22T21:03:20.642Z,100865.88
2017-05-22T21:05:47.242Z,100874.38
2017-05-22T21:08:13.599Z,100871.33
2017-05-22T21:10:39.940Z,100874.74
2017-05-22T21:13:07.005Z,100868.00
2017-05-22T21:15:33.385Z,100863.11
2017-05-22T21:17:59.723Z,100864.02
2017-05-22T21:20:26.074Z,100859.33
2017-05-22T21:22:52.438Z,100858.75
2017-05-22T21:25:19.022Z,100854.88
2017-05-22T21:27:45.540Z,100857.80
2017-05-22T21:30:12.424Z,100857.27
2017-05-22T21:32:39.547Z,100858.92
2017-05-22T21:35:05.857Z,100860.78
2017-05-22T21:37:33.897Z,100852.29
2017-05-22T21:40:02.503Z,100860.22
2017-05-22T21:42:28.890Z,100855.38
2017-05-22T21:44:55.207Z,100864.55
2017-05-22T21:47:21.571Z,100861.08
2017-05-22T21:49:47.896Z,100863.53
2017-05-22T21:52:14.295Z,100872.45
2017-05-22T21:54:40.649Z,100872.35
2017-05-22T21:57:07.007Z,100870.34
2017-05-22T21:59:33.340Z,100864.23
2017-05-22T22:02:01.256Z,100861.45
2017-05-22T22:04:27.747Z,100873.05
2017-05-22T22:06:54.142Z,100874.66
2017-05-22T22:09:20.482Z,100881.42
2017-05-22T22:11:46.853Z,100877.58
2017-05-22T22:14:13.188Z,100881.48
2017-05-22T22:16:39.592Z,100876.15
2017-05-22T22:19:05.937Z,100875.44
2017-05-22T22:21:32.979Z,100868.63
2017-05-22T22:24:00.063Z,100877.37
2017-05-22T22:26:26.950Z,100868.51
2017-05-22T22:28:54.239Z,100864.41
2017-05-22T22:31:20.652Z,100869.44
2017-05-22T22:33:46.980Z,100866.08
2017-05-22T22:36:13.328Z,100875.37
2017-05-22T22:38:39.674Z,100874.10
2017-05-22T22:41:06.027Z,100865.18
2017-05-22T22:43:32.335Z,100863.92
2017-05-22T22:45:58.666Z,100861.63
2017-05-22T22:48:25.082Z,100861.20
2017-05-22T22:50:51.417Z,100866.84
2017-05-22T22:53:17.762Z,100858.79
2017-05-22T22:55:44.161Z,100862.10
2017-05-22T22:58:10.590Z,100857.72
2017-05-22T23:00:36.895Z,100854.09
2017-05-22T23:03:03.229Z,100851.89
2017-05-22T23:05:29.570Z,100854.65
2017-05-22T23:07:55.888Z,100850.25
2017-05-22T23:10:22.201Z,100855.39
2017-05-22T23:12:48.540Z,100844.91
2017-05-22T23:15:14.880Z,100845.41
2017-05-22T23:17:41.268Z,100839.20
2017-05-22T23:20:07.599Z,100831.94
2017-05-22T23:22:33.941Z,100828.84
2017-05-22T23:25:00.263Z,100824.81
2017-05-22T23:27:26.618Z,100824.34
2017-05-22T23:29:52.963Z,100816.48
2017-05-22T23:32:19.322Z,100819.97
2017-05-22T23:34:45.668Z,100816.79
2017-05-22T23:37:12.079Z,100821.47
2017-05-22T23:39:38.410Z,100816.82
2017-05-22T23:42:04.771Z,100816.23
2017-05-22T23:44:31.087Z,100825.80
2017-05-22T23:46:57.472Z,100818.50
2017-05-22T23:49:23.826Z,100821.67
2017-05-22T23:51:50.163Z,100816.33
2017-05-22T23:54:16.497Z,100821.66
2017-05-22T23:56:42.894Z,100816.00
2017-05-22T23:59:09.189Z,100817.89
